createdAt,value
2019-02-28T00:01:03.730Z,6.90
2019-02-28T00:03:34.243Z,6.90
2019-02-28T00:06:04.567Z,6.90
2019-02-28T00:08:35.047Z,7.10
2019-02-28T00:11:06.037Z,7.10
2019-02-28T00:13:36.644Z,7.00
2019-02-28T00:16:08.047Z,6.90
2019-02-28T00:18:38.462Z,6.70
2019-02-28T00:21:08.849Z,6.70
2019-02-28T00:23:39.298Z,6.70
2019-02-28T00:26:11.562Z,6.60
2019-02-28T00:28:41.842Z,6.70
2019-02-28T00:31:15.297Z,6.70
2019-02-28T00:33:44.814Z,6.70
2019-02-28T00:36:16.364Z,6.70
2019-02-28T00:38:47.239Z,6.80
2019-02-28T00:41:17.669Z,6.90
2019-02-28T00:43:48.228Z,6.80
2019-02-28T00:46:18.694Z,6.80
2019-02-28T00:48:52.946Z,6.90
2019-02-28T00:51:22.868Z,7.00
2019-02-28T00:53:53.205Z,7.10
2019-02-28T00:56:23.649Z,7.20
2019-02-28T00:58:54.044Z,7.10
2019-02-28T01:01:24.404Z,7.10
2019-02-28T01:03:58.060Z,7.10
2019-02-28T01:06:26.892Z,7.10
2019-02-28T01:08:57.308Z,7.30
2019-02-28T01:11:27.728Z,7.10
2019-02-28T01:14:01.258Z,7.00
2019-02-28T01:16:30.159Z,7.00
2019-02-28T01:19:00.484Z,6.90
2019-02-28T01:21:30.791Z,6.80
2019-02-28T01:24:01.804Z,6.90
2019-02-28T01:26:32.273Z,6.80
2019-02-28T01:29:02.782Z,6.70
2019-02-28T01:31:33.212Z,6.90
2019-02-28T01:34:03.728Z,6.80
2019-02-28T01:36:34.148Z,6.70
2019-02-28T01:39:07.013Z,6.60
2019-02-28T01:41:38.298Z,6.60
2019-02-28T01:44:08.554Z,6.60
2019-02-28T01:46:38.883Z,6.60
2019-02-28T01:49:09.218Z,6.50
2019-02-28T01:51:39.580Z,6.60
2019-02-28T01:54:10.129Z,6.50
2019-02-28T01:56:40.614Z,6.40
2019-02-28T01:59:11.279Z,6.50
2019-02-28T02:01:41.649Z,6.50
2019-02-28T02:04:12.589Z,6.60
2019-02-28T02:06:43.508Z,6.60
2019-02-28T02:09:13.879Z,6.40
2019-02-28T02:11:44.277Z,6.50
2019-02-28T02:14:14.679Z,6.40
2019-02-28T02:16:45.043Z,6.40
2019-02-28T02:19:18.536Z,6.40
2019-02-28T02:21:47.583Z,6.20
2019-02-28T02:24:18.030Z,6.10
2019-02-28T02:26:48.449Z,6.00
2019-02-28T02:29:25.936Z,5.90
2019-02-28T02:32:01.097Z,6.00
2019-02-28T02:34:29.623Z,5.80
2019-02-28T02:37:01.274Z,5.70
2019-02-28T02:39:31.810Z,5.80
2019-02-28T02:42:02.189Z,5.70
2019-02-28T02:44:33.713Z,5.80
2019-02-28T02:47:04.086Z,5.60
2019-02-28T02:49:34.498Z,5.70
2019-02-28T02:52:04.903Z,5.60
2019-02-28T02:54:35.374Z,5.70
2019-02-28T02:57:05.736Z,5.80
2019-02-28T02:59:38.987Z,5.70
2019-02-28T03:02:08.846Z,5.60
2019-02-28T03:04:39.474Z,5.70
2019-02-28T03:07:09.922Z,5.70
2019-02-28T03:09:43.445Z,5.80
2019-02-28T03:12:12.536Z,5.80
2019-02-28T03:14:42.845Z,5.70
2019-02-28T03:17:13.265Z,5.60
2019-02-28T03:19:44.556Z,5.60
2019-02-28T03:22:15.006Z,5.70
2019-02-28T03:24:50.648Z,5.70
2019-02-28T03:27:19.053Z,5.80
2019-02-28T03:29:49.643Z,5.70
2019-02-28T03:32:19.989Z,5.60
2019-02-28T03:34:58.104Z,5.70
2019-02-28T03:37:22.501Z,5.60
2019-02-28T03:39:52.833Z,5.60
2019-02-28T03:42:28.654Z,5.50
2019-02-28T03:44:57.082Z,5.40
2019-02-28T03:47:27.393Z,5.50
2019-02-28T03:49:57.815Z,5.60
2019-02-28T03:52:28.184Z,5.50
2019-02-28T03:55:03.283Z,5.50
2019-02-28T03:57:30.790Z,5.40
2019-02-28T04:00:01.269Z,5.40
2019-02-28T04:02:31.776Z,5.40
2019-02-28T04:05:03.029Z,5.40
2019-02-28T04:07:34.709Z,5.50
2019-02-28T04:10:05.981Z,5.50
2019-02-28T04:12:44.599Z,5.60
2019-02-28T04:15:11.316Z,5.60
2019-02-28T04:17:42.699Z,5.50
2019-02-28T04:20:13.255Z,5.60
2019-02-28T04:22:43.584Z,5.50
2019-02-28T04:25:14.043Z,5.70
2019-02-28T04:27:44.505Z,5.60
2019-02-28T04:30:15.009Z,5.60
2019-02-28T04:32:45.459Z,5.60
2019-02-28T04:35:15.852Z,5.60
2019-02-28T04:37:47.310Z,5.60
2019-02-28T04:40:17.950Z,5.60
2019-02-28T04:42:48.323Z,5.60
2019-02-28T04:45:18.824Z,5.60
2019-02-28T04:47:49.181Z,5.50
2019-02-28T04:50:19.483Z,5.50
2019-02-28T04:53:08.907Z,5.50
2019-02-28T04:55:39.415Z,5.50
2019-02-28T04:58:09.868Z,5.40
2019-02-28T05:00:40.290Z,5.40
2019-02-28T05:03:10.675Z,5.40
2019-02-28T05:05:41.284Z,5.20
2019-02-28T05:08:11.675Z,4.90
2019-02-28T05:10:42.061Z,4.90
2019-02-28T05:13:14.299Z,4.90
2019-02-28T05:15:44.463Z,4.90
2019-02-28T05:18:14.880Z,5.10
2019-02-28T05:20:46.055Z,5.10
2019-02-28T05:23:16.515Z,5.00
2019-02-28T05:25:49.132Z,4.70
2019-02-28T05:28:18.928Z,4.90
2019-02-28T05:30:50.253Z,5.00
2019-02-28T05:33:21.561Z,5.00
2019-02-28T05:35:52.054Z,5.00
2019-02-28T05:38:22.759Z,5.00
2019-02-28T05:40:55.433Z,5.00
2019-02-28T05:43:29.277Z,5.10
2019-02-28T05:45:59.941Z,5.30
2019-02-28T05:48:30.364Z,5.30
2019-02-28T05:51:00.705Z,5.40
2019-02-28T05:53:31.052Z,5.40
2019-02-28T05:56:01.597Z,5.30
2019-02-28T05:58:31.966Z,5.40
2019-02-28T06:01:02.562Z,5.30
2019-02-28T06:03:33.228Z,5.20
2019-02-28T06:06:03.729Z,5.00
2019-02-28T06:08:35.508Z,4.80
2019-02-28T06:11:06.186Z,4.80
2019-02-28T06:13:37.147Z,4.90
2019-02-28T06:16:11.048Z,4.90
2019-02-28T06:18:39.871Z,4.90
2019-02-28T06:21:10.451Z,4.90
2019-02-28T06:23:41.579Z,4.90
2019-02-28T06:26:12.079Z,4.90
2019-02-28T06:28:42.489Z,4.90
2019-02-28T06:31:14.532Z,4.90
2019-02-28T06:33:46.296Z,5.00
2019-02-28T06:36:16.729Z,5.00
2019-02-28T06:38:47.075Z,5.00
2019-02-28T06:41:17.819Z,4.90
2019-02-28T06:43:50.268Z,4.90
2019-02-28T06:46:20.340Z,4.90
2019-02-28T06:48:50.797Z,4.90
2019-02-28T06:51:21.360Z,5.00
2019-02-28T06:53:51.785Z,5.00
2019-02-28T06:56:23.121Z,5.00
2019-02-28T06:58:53.781Z,5.10
2019-02-28T07:01:24.282Z,5.00
2019-02-28T07:03:54.693Z,5.10
2019-02-28T07:06:25.189Z,5.10
2019-02-28T07:08:55.790Z,5.20
2019-02-28T07:11:26.766Z,5.20
2019-02-28T07:13:57.170Z,5.30
2019-02-28T07:16:30.739Z,5.40
2019-02-28T07:18:59.705Z,5.40
2019-02-28T07:21:30.220Z,5.50
2019-02-28T07:24:02.468Z,5.50
2019-02-28T07:26:32.890Z,5.60
2019-02-28T07:29:03.613Z,5.60
2019-02-28T07:31:34.146Z,5.70
2019-02-28T07:34:04.691Z,5.80
2019-02-28T07:36:35.084Z,5.90
2019-02-28T07:39:06.487Z,5.90
2019-02-28T07:41:36.944Z,5.90
2019-02-28T07:44:07.625Z,6.00
2019-02-28T07:46:38.786Z,6.10
2019-02-28T07:49:10.762Z,6.20
2019-02-28T07:51:41.455Z,6.20
2019-02-28T07:54:12.568Z,6.20
2019-02-28T07:56:44.371Z,6.30
2019-02-28T07:59:14.800Z,6.30
2019-02-28T08:01:45.480Z,6.40
2019-02-28T08:04:18.576Z,6.40
2019-02-28T08:06:48.060Z,6.50
2019-02-28T08:09:25.866Z,6.50
2019-02-28T08:11:56.781Z,6.70
2019-02-28T08:14:27.477Z,6.70
2019-02-28T08:16:57.948Z,6.80
2019-02-28T08:19:28.487Z,6.80
2019-02-28T08:21:59.226Z,6.80
2019-02-28T08:24:29.653Z,6.90
2019-02-28T08:27:00.011Z,7.00
2019-02-28T08:29:30.620Z,7.10
2019-02-28T08:32:06.735Z,7.10
2019-02-28T08:34:33.301Z,7.20
2019-02-28T08:37:03.792Z,7.30
2019-02-28T08:39:34.175Z,7.40
2019-02-28T08:42:04.949Z,7.50
2019-02-28T08:44:35.646Z,7.50
2019-02-28T08:47:06.367Z,7.60
2019-02-28T08:49:42.174Z,7.70
2019-02-28T08:52:09.422Z,7.90
2019-02-28T08:54:39.846Z,8.00
2019-02-28T08:57:10.482Z,8.10
2019-02-28T08:59:41.070Z,8.10
2019-02-28T09:02:14.522Z,8.20
2019-02-28T09:04:44.973Z,8.20
2019-02-28T09:07:16.078Z,8.30
2019-02-28T09:09:46.736Z,8.40
2019-02-28T09:12:17.486Z,8.40
2019-02-28T09:14:48.158Z,8.40
2019-02-28T09:17:19.382Z,8.60
2019-02-28T09:19:50.197Z,8.70
2019-02-28T09:22:20.555Z,8.70
2019-02-28T09:24:52.181Z,8.80
2019-02-28T09:27:22.746Z,9.00
2019-02-28T09:29:54.883Z,9.10
2019-02-28T09:32:25.598Z,9.10
2019-02-28T09:34:56.052Z,9.20
2019-02-28T09:37:29.544Z,9.30
2019-02-28T09:39:58.711Z,9.30
2019-02-28T09:42:29.265Z,9.40
2019-02-28T09:44:59.687Z,9.50
2019-02-28T09:47:30.376Z,9.60
2019-02-28T09:50:00.838Z,9.60
2019-02-28T09:52:31.390Z,9.80
2019-02-28T09:55:01.832Z,9.80
2019-02-28T09:57:32.226Z,10.00
2019-02-28T10:00:02.851Z,10.00
2019-02-28T10:02:35.158Z,10.10
2019-02-28T10:05:07.569Z,10.10
2019-02-28T10:07:38.016Z,10.20
2019-02-28T10:10:13.751Z,10.30
2019-02-28T10:12:44.292Z,10.50
2019-02-28T10:15:16.788Z,10.40
2019-02-28T10:17:47.944Z,10.40
2019-02-28T10:20:27.068Z,10.60
2019-02-28T10:22:56.070Z,10.60
2019-02-28T10:25:26.732Z,10.50
2019-02-28T10:28:01.390Z,10.50
2019-02-28T10:30:32.068Z,10.40
2019-02-28T10:33:02.284Z,10.40
2019-02-28T10:35:33.550Z,10.40
2019-02-28T10:38:05.246Z,10.40
2019-02-28T10:40:35.793Z,10.30
2019-02-28T10:43:06.547Z,10.50
2019-02-28T10:45:41.426Z,10.60
2019-02-28T10:48:10.478Z,11.10
2019-02-28T10:50:41.151Z,11.20
2019-02-28T10:53:11.992Z,11.40
2019-02-28T10:55:42.351Z,11.20
2019-02-28T10:58:15.531Z,11.40
2019-02-28T11:00:45.623Z,11.30
2019-02-28T11:03:16.742Z,11.20
2019-02-28T11:05:53.413Z,11.30
2019-02-28T11:08:19.922Z,11.30
2019-02-28T11:10:50.435Z,11.50
2019-02-28T11:13:21.039Z,11.60
2019-02-28T11:15:52.067Z,11.80
2019-02-28T11:18:22.506Z,11.80
2019-02-28T11:20:53.275Z,11.70
2019-02-28T11:23:24.032Z,11.90
2019-02-28T11:25:55.656Z,12.00
2019-02-28T11:28:28.397Z,12.10
2019-02-28T11:30:58.612Z,12.20
2019-02-28T11:33:29.520Z,12.30
2019-02-28T11:36:00.201Z,12.30
2019-02-28T11:38:30.652Z,12.40
2019-02-28T11:41:01.117Z,12.60
2019-02-28T11:43:37.380Z,12.40
2019-02-28T11:46:16.441Z,12.70
2019-02-28T11:48:46.791Z,12.80
2019-02-28T11:51:22.996Z,12.90
2019-02-28T11:53:53.421Z,13.00
2019-02-28T11:56:25.541Z,12.90
2019-02-28T11:58:55.709Z,13.20
2019-02-28T12:01:26.017Z,13.10
2019-02-28T12:03:56.286Z,13.20
2019-02-28T12:06:26.567Z,13.00
2019-02-28T12:08:56.953Z,12.90
2019-02-28T12:11:27.193Z,12.80
2019-02-28T12:13:57.481Z,12.90
2019-02-28T12:16:27.751Z,12.70
2019-02-28T12:18:58.048Z,13.00
2019-02-28T12:21:28.318Z,13.00
2019-02-28T12:24:00.568Z,13.00
2019-02-28T12:26:30.797Z,13.00
2019-02-28T12:29:01.109Z,12.90
2019-02-28T12:31:32.053Z,12.90
2019-02-28T12:34:03.558Z,12.70
2019-02-28T12:36:33.879Z,12.70
2019-02-28T12:39:05.374Z,12.70
2019-02-28T12:41:37.356Z,12.60
2019-02-28T12:44:07.881Z,12.70
2019-02-28T12:46:38.452Z,12.70
2019-02-28T12:49:08.753Z,12.90
2019-02-28T12:51:39.604Z,13.20
2019-02-28T12:54:10.606Z,13.10
2019-02-28T12:56:40.917Z,13.30
2019-02-28T12:59:11.193Z,13.40
2019-02-28T13:01:41.534Z,13.30
2019-02-28T13:04:11.842Z,13.40
2019-02-28T13:06:42.141Z,13.60
2019-02-28T13:09:13.628Z,13.20
2019-02-28T13:11:44.992Z,13.30
2019-02-28T13:14:15.225Z,13.20
2019-02-28T13:16:45.717Z,13.40
2019-02-28T13:19:16.374Z,13.50
2019-02-28T13:21:49.188Z,13.50
2019-02-28T13:24:19.474Z,13.60
2019-02-28T13:26:49.969Z,13.80
2019-02-28T13:29:22.228Z,13.70
2019-02-28T13:31:52.836Z,13.70
2019-02-28T13:34:25.192Z,13.90
2019-02-28T13:37:01.888Z,14.00
2019-02-28T13:39:31.762Z,13.90
2019-02-28T13:42:03.261Z,14.00
2019-02-28T13:44:36.384Z,14.10
2019-02-28T13:47:09.337Z,14.10
2019-02-28T13:49:38.448Z,14.00
2019-02-28T13:52:09.323Z,13.80
2019-02-28T13:54:42.105Z,13.60
2019-02-28T13:57:12.131Z,13.30
2019-02-28T13:59:42.625Z,13.30
2019-02-28T14:02:13.660Z,13.20
2019-02-28T14:04:44.218Z,13.10
2019-02-28T14:07:14.644Z,13.00
2019-02-28T14:09:45.257Z,13.00
2019-02-28T14:12:16.959Z,13.10
2019-02-28T14:14:47.957Z,13.10
2019-02-28T14:17:18.482Z,13.00
2019-02-28T14:19:48.918Z,12.90
2019-02-28T14:22:19.510Z,13.00
2019-02-28T14:24:50.151Z,13.00
2019-02-28T14:27:21.642Z,13.00
2019-02-28T14:29:52.593Z,13.30
2019-02-28T14:32:22.947Z,13.50
2019-02-28T14:34:53.508Z,13.80
2019-02-28T14:37:23.921Z,13.80
2019-02-28T14:39:54.449Z,13.90
2019-02-28T14:42:24.974Z,14.20
2019-02-28T14:44:55.382Z,14.10
2019-02-28T14:47:28.497Z,14.20
2019-02-28T14:49:57.971Z,14.50
2019-02-28T14:52:29.652Z,14.40
2019-02-28T14:55:00.219Z,14.40
2019-02-28T14:57:30.521Z,14.30
2019-02-28T15:00:06.203Z,14.30
2019-02-28T15:02:33.365Z,14.30
2019-02-28T15:05:04.069Z,14.30
2019-02-28T15:07:35.338Z,14.10
2019-02-28T15:10:09.103Z,14.00
2019-02-28T15:12:39.939Z,14.00
2019-02-28T15:15:18.063Z,13.90
2019-02-28T15:17:48.685Z,13.80
2019-02-28T15:20:20.627Z,13.80
2019-02-28T15:22:52.488Z,13.80
2019-02-28T15:25:23.738Z,13.70
2019-02-28T15:27:54.223Z,13.60
2019-02-28T15:30:27.090Z,13.60
2019-02-28T15:32:57.776Z,13.60
2019-02-28T15:35:28.467Z,13.60
2019-02-28T15:37:59.190Z,13.60
2019-02-28T15:40:32.099Z,13.60
2019-02-28T15:43:02.963Z,13.60
2019-02-28T15:45:39.232Z,13.70
2019-02-28T15:48:12.624Z,13.80
2019-02-28T15:50:58.503Z,13.90
2019-02-28T15:53:37.424Z,13.80
2019-02-28T15:56:13.237Z,13.70
2019-02-28T15:58:49.299Z,13.70
2019-02-28T16:01:32.359Z,13.60
2019-02-28T16:04:11.520Z,13.60
2019-02-28T16:06:47.146Z,13.60
2019-02-28T16:09:22.241Z,13.60
2019-02-28T16:12:01.928Z,13.60
2019-02-28T16:14:34.825Z,13.50
2019-02-28T16:17:06.348Z,13.40
2019-02-28T16:19:37.410Z,13.30
2019-02-28T16:22:07.934Z,13.20
2019-02-28T16:24:45.495Z,13.10
2019-02-28T16:27:17.722Z,12.90
2019-02-28T16:29:52.251Z,12.80
2019-02-28T16:32:23.720Z,12.60
2019-02-28T16:34:54.610Z,12.50
2019-02-28T16:37:25.385Z,12.50
2019-02-28T16:39:56.340Z,12.50
2019-02-28T16:42:26.835Z,12.50
2019-02-28T16:44:57.389Z,12.50
2019-02-28T16:47:27.991Z,12.40
2019-02-28T16:49:58.619Z,12.40
2019-02-28T16:52:31.245Z,12.40
2019-02-28T16:55:01.744Z,12.30
2019-02-28T16:57:32.915Z,12.30
2019-02-28T17:00:04.073Z,12.30
2019-02-28T17:02:42.603Z,12.30
2019-02-28T17:05:13.358Z,12.20
2019-02-28T17:07:44.507Z,12.20
2019-02-28T17:10:18.198Z,12.20
2019-02-28T17:13:02.900Z,12.10
2019-02-28T17:15:41.609Z,12.10
2019-02-28T17:18:18.429Z,12.10
2019-02-28T17:20:47.847Z,12.10
2019-02-28T17:23:19.259Z,12.10
2019-02-28T17:25:49.806Z,12.00
2019-02-28T17:28:37.894Z,12.00
2019-02-28T17:31:29.530Z,12.00
2019-02-28T17:33:59.949Z,12.00
2019-02-28T17:36:37.577Z,12.00
2019-02-28T17:39:17.281Z,12.00
2019-02-28T17:41:55.291Z,12.00
2019-02-28T17:44:52.371Z,12.00
2019-02-28T17:48:15.040Z,12.00
2019-02-28T17:51:14.991Z,12.00
2019-02-28T17:54:17.187Z,12.00
2019-02-28T17:57:16.474Z,12.00
2019-02-28T18:00:17.502Z,12.00
2019-02-28T18:03:27.976Z,11.90
2019-02-28T18:06:47.321Z,11.90
2019-02-28T18:09:34.816Z,11.90
2019-02-28T18:12:58.743Z,11.90
2019-02-28T18:15:49.562Z,11.90
2019-02-28T18:18:50.351Z,11.80
2019-02-28T18:21:52.363Z,11.80
2019-02-28T18:25:03.499Z,11.70
2019-02-28T18:28:30.974Z,11.70
2019-02-28T18:31:29.748Z,11.60
2019-02-28T18:34:07.095Z,11.50
2019-02-28T18:36:40.244Z,11.40
2019-02-28T18:39:15.861Z,11.40
2019-02-28T18:41:46.407Z,11.40
2019-02-28T18:44:16.913Z,11.30
2019-02-28T18:46:49.031Z,11.20
2019-02-28T18:49:19.487Z,11.20
2019-02-28T18:51:49.859Z,11.20
2019-02-28T18:54:20.340Z,11.20
2019-02-28T18:56:51.020Z,11.10
2019-02-28T18:59:21.517Z,11.10
2019-02-28T19:01:52.209Z,11.00
2019-02-28T19:04:22.803Z,11.00
2019-02-28T19:06:55.548Z,11.00
2019-02-28T19:09:26.252Z,11.00
2019-02-28T19:11:56.716Z,10.90
2019-02-28T19:14:27.166Z,10.90
2019-02-28T19:16:57.626Z,10.90
2019-02-28T19:19:28.169Z,10.80
2019-02-28T19:21:58.640Z,10.80
2019-02-28T19:24:29.198Z,10.80
2019-02-28T19:26:59.723Z,10.70
2019-02-28T19:29:30.211Z,10.80
2019-02-28T19:32:01.176Z,10.70
2019-02-28T19:34:31.810Z,10.70
2019-02-28T19:37:07.288Z,10.70
2019-02-28T19:39:37.870Z,10.70
2019-02-28T19:42:08.351Z,10.70
2019-02-28T19:44:39.124Z,10.60
2019-02-28T19:47:09.474Z,10.60
2019-02-28T19:49:39.800Z,10.60
2019-02-28T19:52:10.377Z,10.60
2019-02-28T19:54:40.839Z,10.60
2019-02-28T19:57:11.331Z,10.60
2019-02-28T19:59:42.710Z,10.50
2019-02-28T20:02:15.169Z,10.60
2019-02-28T20:04:45.546Z,10.50
2019-02-28T20:07:16.244Z,10.50
2019-02-28T20:09:46.766Z,10.50
2019-02-28T20:12:17.371Z,10.50
2019-02-28T20:14:47.756Z,10.50
2019-02-28T20:17:18.261Z,10.50
2019-02-28T20:19:48.680Z,10.50
2019-02-28T20:22:19.021Z,10.50
2019-02-28T20:24:49.473Z,10.40
2019-02-28T20:27:19.996Z,10.40
2019-02-28T20:29:55.044Z,10.40
2019-02-28T20:32:22.695Z,10.40
2019-02-28T20:34:53.330Z,10.40
2019-02-28T20:37:23.794Z,10.40
2019-02-28T20:39:54.185Z,10.40
2019-02-28T20:42:24.751Z,10.40
2019-02-28T20:44:55.337Z,10.40
2019-02-28T20:47:25.934Z,10.40
2019-02-28T20:49:57.002Z,10.40
2019-02-28T20:52:27.730Z,10.50
2019-02-28T20:54:58.350Z,10.50
2019-02-28T20:57:28.896Z,10.50
2019-02-28T20:59:59.436Z,10.40
2019-02-28T21:02:29.840Z,10.50
2019-02-28T21:05:00.334Z,10.40
2019-02-28T21:07:32.145Z,10.40
2019-02-28T21:10:05.157Z,10.30
2019-02-28T21:12:37.314Z,10.20
2019-02-28T21:15:11.013Z,10.10
2019-02-28T21:17:44.501Z,9.90
2019-02-28T21:20:14.946Z,9.90
2019-02-28T21:22:45.279Z,9.80
2019-02-28T21:25:17.355Z,9.70
2019-02-28T21:27:48.419Z,9.70
2019-02-28T21:30:20.826Z,9.60
2019-02-28T21:32:55.321Z,9.50
2019-02-28T21:35:26.462Z,9.60
2019-02-28T21:37:57.404Z,9.50
2019-02-28T21:40:28.204Z,9.50
2019-02-28T21:42:59.547Z,9.40
2019-02-28T21:45:30.264Z,9.40
2019-02-28T21:48:04.168Z,9.40
2019-02-28T21:50:34.821Z,9.50
2019-02-28T21:53:05.529Z,9.40
2019-02-28T21:55:36.143Z,9.50
2019-02-28T21:58:06.799Z,9.50
2019-02-28T22:00:38.101Z,9.50
2019-02-28T22:03:08.664Z,9.50
2019-02-28T22:05:39.165Z,9.50
2019-02-28T22:08:09.715Z,9.50
2019-02-28T22:10:40.204Z,9.50
2019-02-28T22:13:10.728Z,9.50
2019-02-28T22:15:41.617Z,9.40
2019-02-28T22:18:12.379Z,9.40
2019-02-28T22:20:43.007Z,9.30
2019-02-28T22:23:13.830Z,9.30
2019-02-28T22:25:44.376Z,9.20
2019-02-28T22:28:15.441Z,9.20
2019-02-28T22:31:04.845Z,9.20
2019-02-28T22:33:48.616Z,9.20
2019-02-28T22:36:23.876Z,9.20
2019-02-28T22:38:54.325Z,9.10
2019-02-28T22:41:24.996Z,9.10
2019-02-28T22:43:55.587Z,9.10
2019-02-28T22:46:26.024Z,9.10
2019-02-28T22:48:56.546Z,9.10
2019-02-28T22:51:27.058Z,9.10
2019-02-28T22:53:57.873Z,9.20
2019-02-28T22:56:28.494Z,9.20
2019-02-28T22:58:59.281Z,9.20
2019-02-28T23:01:31.462Z,9.10
2019-02-28T23:04:02.545Z,9.00
2019-02-28T23:06:32.817Z,8.90
2019-02-28T23:09:04.196Z,8.90
2019-02-28T23:11:36.226Z,9.00
2019-02-28T23:14:06.660Z,9.00
2019-02-28T23:16:36.951Z,9.10
2019-02-28T23:19:07.400Z,9.10
2019-02-28T23:21:37.811Z,9.00
2019-02-28T23:24:09.291Z,9.00
2019-02-28T23:27:09.181Z,9.00
2019-02-28T23:29:41.445Z,8.90
2019-02-28T23:32:41.254Z,9.00
2019-02-28T23:35:21.551Z,9.00
2019-02-28T23:37:52.273Z,8.90
2019-02-28T23:40:22.749Z,8.80
2019-02-28T23:42:53.209Z,8.80
2019-02-28T23:45:23.580Z,8.70
2019-02-28T23:47:53.942Z,8.70
2019-02-28T23:50:24.571Z,8.60
2019-02-28T23:52:55.087Z,8.60
2019-02-28T23:55:25.656Z,8.60
2019-02-28T23:57:56.047Z,8.70
